Time;durP1;ratioP1;P1;durP2;ratioP2;P2;SDS_P1;SDS_P2;PMS_P1;PMS_P2;Temp;Humidity;BMP_temperature;BMP_pressure;BME280_temperature;BME280_humidity;BME280_pressure;Samples;Min_cycle;Max_cycle;Signal;HPM_P1;HPM_P2
2021/04/30 00:01:20;;;;;;;6.12;5.53;;;4.00;99.90;;;;;;482492;245;27472;-64
2021/04/30 00:03:21;;;;;;;5.57;5.07;;;3.90;99.90;;;;;;482483;245;27478;-64
2021/04/30 00:05:24;;;;;;;6.40;5.80;;;4.00;99.90;;;;;;482498;245;27402;-65
2021/04/30 00:07:24;;;;;;;5.03;4.62;;;3.90;99.90;;;;;;482472;244;27891;-64
2021/04/30 00:09:25;;;;;;;6.22;5.05;;;3.90;99.90;;;;;;482468;245;27868;-64
2021/04/30 00:11:26;;;;;;;6.10;5.53;;;3.90;99.90;;;;;;482467;245;27876;-64
2021/04/30 00:13:27;;;;;;;6.03;5.43;;;3.80;99.90;;;;;;482473;246;27516;-64
2021/04/30 00:15:29;;;;;;;5.82;5.22;;;3.80;99.90;;;;;;482471;245;27434;-64
2021/04/30 00:17:30;;;;;;;6.53;5.53;;;3.80;99.90;;;;;;482465;245;27415;-64
2021/04/30 00:19:31;;;;;;;5.85;5.32;;;3.80;99.90;;;;;;482463;245;27410;-64
2021/04/30 00:21:32;;;;;;;5.00;4.60;;;3.80;99.90;;;;;;482488;245;27537;-64
2021/04/30 00:23:34;;;;;;;6.45;5.85;;;3.70;99.90;;;;;;482480;245;27430;-64
2021/04/30 00:25:35;;;;;;;5.82;5.07;;;3.60;99.90;;;;;;482460;245;27411;-65
2021/04/30 00:27:36;;;;;;;6.35;5.75;;;3.50;99.90;;;;;;482463;245;27877;-64
2021/04/30 00:29:37;;;;;;;6.03;5.43;;;3.60;99.90;;;;;;482448;245;27876;-64
2021/04/30 00:31:39;;;;;;;5.07;4.68;;;3.50;99.90;;;;;;482473;246;27977;-64
2021/04/30 00:33:40;;;;;;;5.60;5.10;;;3.50;99.90;;;;;;482475;245;27489;-65
2021/04/30 00:35:41;;;;;;;5.40;4.90;;;3.50;99.90;;;;;;482466;245;27439;-66
2021/04/30 00:37:42;;;;;;;6.62;6.03;;;3.60;99.90;;;;;;482468;246;27465;-64
2021/04/30 00:39:44;;;;;;;6.10;5.45;;;3.60;99.90;;;;;;482460;246;27636;-64
2021/04/30 00:41:45;;;;;;;6.20;5.62;;;3.60;99.90;;;;;;482469;245;27406;-64
2021/04/30 00:43:46;;;;;;;6.25;5.65;;;3.60;99.90;;;;;;482471;245;27412;-64
2021/04/30 00:45:52;;;;;;;5.80;5.30;;;3.60;99.90;;;;;;482460;245;27474;-64
2021/04/30 00:47:49;;;;;;;6.40;5.80;;;3.60;99.90;;;;;;482451;246;27414;-64
2021/04/30 00:49:50;;;;;;;5.45;4.95;;;3.60;99.90;;;;;;482463;245;27985;-64
2021/04/30 00:51:51;;;;;;;6.80;6.20;;;3.50;99.90;;;;;;482469;245;27945;-64
2021/04/30 00:53:52;;;;;;;6.90;6.20;;;3.50;99.90;;;;;;482466;245;27414;-64
2021/04/30 00:55:54;;;;;;;7.20;6.40;;;3.40;99.90;;;;;;482472;245;27524;-63
2021/04/30 00:57:55;;;;;;;9.27;7.00;;;3.40;99.90;;;;;;482455;245;27525;-64
2021/04/30 00:59:56;;;;;;;6.60;6.00;;;3.40;99.90;;;;;;482453;246;27422;-65
2021/04/30 01:01:57;;;;;;;6.40;5.15;;;3.40;99.90;;;;;;482477;245;27406;-64
2021/04/30 01:03:59;;;;;;;6.12;5.53;;;3.30;99.90;;;;;;482486;245;27422;-64
2021/04/30 01:06:00;;;;;;;8.20;5.72;;;3.30;99.90;;;;;;482467;245;27490;-63
2021/04/30 01:08:02;;;;;;;6.80;6.20;;;3.20;99.90;;;;;;482468;245;27529;-64
2021/04/30 01:10:02;;;;;;;6.95;6.35;;;3.10;99.90;;;;;;482430;245;27885;-66
2021/04/30 01:12:04;;;;;;;5.60;4.95;;;3.10;99.90;;;;;;482486;245;27891;-64
2021/04/30 01:14:05;;;;;;;6.57;5.90;;;3.00;99.90;;;;;;482483;245;27865;-64
2021/04/30 01:16:06;;;;;;;7.05;6.20;;;3.10;99.90;;;;;;482477;245;27414;-63
2021/04/30 01:18:07;;;;;;;7.40;5.78;;;3.10;99.90;;;;;;482483;245;27410;-63
2021/04/30 01:20:09;;;;;;;6.53;5.80;;;3.00;99.90;;;;;;482492;246;27427;-65
2021/04/30 01:22:10;;;;;;;6.40;5.80;;;3.00;99.90;;;;;;482467;246;27414;-63
2021/04/30 01:24:12;;;;;;;6.55;5.40;;;3.00;99.90;;;;;;482475;245;27414;-63
2021/04/30 01:26:12;;;;;;;5.95;5.45;;;2.80;99.90;;;;;;482473;245;27478;-64
2021/04/30 01:28:14;;;;;;;6.37;5.78;;;2.80;99.90;;;;;;482507;245;27510;-63
2021/04/30 01:30:15;;;;;;;5.75;5.25;;;2.80;99.90;;;;;;482466;245;27406;-64
2021/04/30 01:32:16;;;;;;;7.57;6.12;;;2.80;99.90;;;;;;482508;246;27968;-63
2021/04/30 01:34:17;;;;;;;6.40;5.80;;;2.80;99.90;;;;;;482488;245;27886;-63
2021/04/30 01:36:19;;;;;;;6.87;6.18;;;2.90;99.90;;;;;;482467;245;27989;-63
2021/04/30 01:38:20;;;;;;;7.47;6.65;;;2.90;99.90;;;;;;482520;245;27855;-64
2021/04/30 01:40:21;;;;;;;7.37;5.90;;;2.90;99.90;;;;;;482492;246;27489;-65
2021/04/30 01:42:22;;;;;;;8.98;7.05;;;2.80;99.90;;;;;;482473;245;27585;-63
2021/04/30 01:44:24;;;;;;;8.40;6.80;;;2.70;99.90;;;;;;482464;245;27414;-64
2021/04/30 01:46:25;;;;;;;7.37;6.35;;;2.70;99.90;;;;;;482446;245;27494;-64
2021/04/30 01:48:26;;;;;;;8.70;7.43;;;2.60;99.90;;;;;;482446;245;27418;-63
2021/04/30 01:50:27;;;;;;;7.55;6.00;;;2.50;99.90;;;;;;482441;245;27491;-64
2021/04/30 01:52:29;;;;;;;6.85;5.75;;;2.60;99.90;;;;;;482447;245;27483;-63
2021/04/30 01:54:30;;;;;;;5.85;5.35;;;2.60;99.90;;;;;;482472;245;27410;-64
2021/04/30 01:56:31;;;;;;;9.63;7.70;;;2.60;99.90;;;;;;482488;246;27402;-64
2021/04/30 01:58:32;;;;;;;6.12;5.53;;;2.60;99.90;;;;;;482480;245;27423;-64
2021/04/30 02:00:34;;;;;;;7.95;6.12;;;2.60;99.90;;;;;;482492;245;28049;-65
2021/04/30 02:02:35;;;;;;;6.18;5.57;;;2.70;99.90;;;;;;482467;245;27864;-64
2021/04/30 02:04:36;;;;;;;6.53;5.87;;;2.60;99.90;;;;;;482482;245;27860;-64
2021/04/30 02:06:38;;;;;;;9.60;7.50;;;2.60;99.90;;;;;;482472;245;27481;-63
2021/04/30 02:08:39;;;;;;;8.05;6.50;;;2.60;99.90;;;;;;482488;245;27410;-64
2021/04/30 02:10:40;;;;;;;10.23;7.85;;;2.60;99.90;;;;;;482465;246;27400;-63
2021/04/30 02:12:41;;;;;;;7.05;6.35;;;2.50;99.90;;;;;;482481;245;27418;-64
2021/04/30 02:14:42;;;;;;;7.65;6.50;;;2.50;99.90;;;;;;482479;245;27489;-64
2021/04/30 02:16:44;;;;;;;8.13;7.07;;;2.40;99.90;;;;;;482466;245;27422;-64
2021/04/30 02:18:45;;;;;;;6.45;5.62;;;2.40;99.90;;;;;;482484;245;27410;-64
2021/04/30 02:20:46;;;;;;;7.28;6.30;;;2.30;99.90;;;;;;482481;245;27475;-63
2021/04/30 02:22:47;;;;;;;8.95;6.85;;;2.10;99.90;;;;;;482462;245;27398;-64
2021/04/30 02:24:49;;;;;;;10.00;7.37;;;2.10;99.90;;;;;;482472;245;27416;-64
2021/04/30 02:26:50;;;;;;;9.70;6.30;;;2.10;99.90;;;;;;482469;245;27982;-63
2021/04/30 02:28:51;;;;;;;9.65;7.30;;;2.10;99.90;;;;;;482477;245;27874;-64
2021/04/30 02:30:52;;;;;;;11.18;7.00;;;2.10;99.90;;;;;;482466;245;28214;-63
2021/04/30 02:32:54;;;;;;;7.65;5.95;;;2.00;99.90;;;;;;482481;245;27411;-64
2021/04/30 02:34:56;;;;;;;8.20;6.90;;;2.00;99.90;;;;;;482471;245;27414;-65
2021/04/30 02:36:56;;;;;;;7.68;6.72;;;2.00;99.90;;;;;;482437;245;27502;-63
2021/04/30 02:38:58;;;;;;;7.47;6.55;;;1.90;99.90;;;;;;482488;245;27414;-64
2021/04/30 02:40:59;;;;;;;7.75;6.30;;;1.90;99.90;;;;;;482483;245;27486;-63
2021/04/30 02:43:00;;;;;;;6.40;5.78;;;1.90;99.90;;;;;;482485;245;27390;-63
2021/04/30 02:45:01;;;;;;;11.32;7.37;;;2.00;99.90;;;;;;482473;245;27498;-64
2021/04/30 02:47:03;;;;;;;7.37;6.65;;;2.00;99.90;;;;;;482481;245;27400;-63
2021/04/30 02:49:05;;;;;;;8.80;7.60;;;2.00;99.90;;;;;;482470;245;27429;-64
2021/04/30 02:51:05;;;;;;;7.28;6.57;;;2.10;99.90;;;;;;482453;245;27782;-63
2021/04/30 02:53:06;;;;;;;10.35;7.43;;;2.10;99.90;;;;;;482471;245;27882;-63
2021/04/30 02:55:07;;;;;;;9.35;7.30;;;2.10;99.90;;;;;;482474;245;27862;-65
2021/04/30 02:57:09;;;;;;;8.98;7.20;;;2.00;99.90;;;;;;482465;245;27951;-63
2021/04/30 02:59:10;;;;;;;7.12;6.43;;;2.00;99.90;;;;;;482462;245;27529;-64
2021/04/30 03:01:11;;;;;;;8.05;7.28;;;2.00;99.90;;;;;;482462;245;27490;-63
2021/04/30 03:03:13;;;;;;;8.50;6.90;;;2.00;99.90;;;;;;482466;246;27405;-64
2021/04/30 03:05:14;;;;;;;10.70;7.87;;;2.00;99.90;;;;;;482457;245;27430;-65
2021/04/30 03:07:15;;;;;;;7.45;6.72;;;2.00;99.90;;;;;;482453;245;27394;-63
2021/04/30 03:09:16;;;;;;;7.43;6.65;;;1.90;99.90;;;;;;482468;245;27422;-65
2021/04/30 03:11:18;;;;;;;8.45;7.28;;;1.90;99.90;;;;;;482457;245;27398;-63
2021/04/30 03:13:19;;;;;;;11.32;7.03;;;1.90;99.90;;;;;;482470;245;27421;-63
2021/04/30 03:15:20;;;;;;;7.18;6.20;;;1.90;99.90;;;;;;482457;245;27483;-66
2021/04/30 03:17:21;;;;;;;8.43;7.50;;;1.90;99.90;;;;;;482474;245;27882;-64
2021/04/30 03:19:23;;;;;;;10.82;7.97;;;1.90;99.90;;;;;;482485;245;27862;-64
2021/04/30 03:21:24;;;;;;;9.82;8.20;;;1.80;99.90;;;;;;482462;245;27885;-64
2021/04/30 03:23:25;;;;;;;8.27;7.32;;;1.80;99.90;;;;;;482470;246;27438;-63
2021/04/30 03:25:26;;;;;;;9.20;6.72;;;1.80;99.90;;;;;;482476;245;27408;-63
2021/04/30 03:27:28;;;;;;;8.65;7.12;;;1.80;99.90;;;;;;482472;245;27493;-63
2021/04/30 03:29:29;;;;;;;8.30;6.90;;;1.80;99.90;;;;;;482492;245;27484;-63
2021/04/30 03:31:30;;;;;;;9.00;7.22;;;1.60;99.90;;;;;;482450;245;27405;-63
2021/04/30 03:33:31;;;;;;;10.15;7.97;;;1.70;99.90;;;;;;482471;245;27426;-63
2021/04/30 03:35:33;;;;;;;7.85;6.95;;;1.70;99.90;;;;;;482467;245;27395;-63
2021/04/30 03:37:34;;;;;;;8.13;7.20;;;1.70;99.90;;;;;;482465;245;27426;-64
2021/04/30 03:39:35;;;;;;;7.32;6.57;;;1.60;99.90;;;;;;482458;245;27485;-69
2021/04/30 03:41:36;;;;;;;9.40;7.35;;;1.70;99.90;;;;;;482478;245;27486;-64
2021/04/30 03:43:38;;;;;;;8.10;6.40;;;1.70;99.90;;;;;;482481;245;27953;-64
2021/04/30 03:45:39;;;;;;;8.32;6.95;;;1.70;99.90;;;;;;482460;245;28291;-64
2021/04/30 03:47:40;;;;;;;7.35;6.60;;;1.70;99.90;;;;;;482466;245;28961;-63
2021/04/30 03:49:41;;;;;;;10.48;7.97;;;1.70;99.90;;;;;;482464;246;27877;-64
2021/04/30 03:51:43;;;;;;;8.38;7.12;;;1.60;99.90;;;;;;482457;245;27458;-64
2021/04/30 03:53:44;;;;;;;9.70;7.62;;;1.50;99.90;;;;;;482468;245;27441;-64
2021/04/30 03:55:45;;;;;;;9.20;7.82;;;1.50;99.90;;;;;;482468;246;27394;-64
2021/04/30 03:57:46;;;;;;;8.02;7.00;;;1.60;99.90;;;;;;482455;245;27407;-64
2021/04/30 03:59:48;;;;;;;7.82;7.03;;;1.60;99.90;;;;;;482452;246;27514;-64
2021/04/30 04:01:49;;;;;;;8.40;7.18;;;1.60;99.90;;;;;;482463;245;27462;-63
2021/04/30 04:03:50;;;;;;;8.93;7.35;;;1.50;99.90;;;;;;482462;245;27403;-64
2021/04/30 04:05:51;;;;;;;8.00;7.18;;;1.50;99.90;;;;;;482472;245;27501;-64
2021/04/30 04:07:53;;;;;;;9.38;8.00;;;1.40;99.90;;;;;;482479;245;27422;-63
2021/04/30 04:09:54;;;;;;;11.65;7.15;;;1.40;99.90;;;;;;482481;245;27911;-65
2021/04/30 04:11:55;;;;;;;8.65;6.68;;;1.40;99.90;;;;;;482450;245;27846;-64
2021/04/30 04:13:56;;;;;;;10.77;7.53;;;1.40;99.90;;;;;;482460;245;27973;-64
2021/04/30 04:16:02;;;;;;;9.98;8.05;;;1.40;99.90;;;;;;482460;246;27944;-64
2021/04/30 04:17:59;;;;;;;8.35;6.75;;;1.50;99.90;;;;;;482445;245;27534;-70
2021/04/30 04:20:00;;;;;;;9.70;7.82;;;1.40;99.90;;;;;;482462;246;27513;-65
2021/04/30 04:22:01;;;;;;;7.55;6.75;;;1.40;99.90;;;;;;482451;245;27406;-64
2021/04/30 04:24:03;;;;;;;9.10;7.00;;;1.50;99.90;;;;;;482472;245;27512;-64
2021/04/30 04:26:04;;;;;;;9.32;7.72;;;1.40;99.90;;;;;;482466;245;27423;-63
2021/04/30 04:28:05;;;;;;;8.70;7.50;;;1.50;99.90;;;;;;482465;245;27414;-63
2021/04/30 04:30:08;;;;;;;9.95;8.10;;;1.40;99.90;;;;;;482450;246;27475;-65
2021/04/30 04:32:08;;;;;;;7.22;6.53;;;1.40;99.90;;;;;;482445;245;27405;-64
2021/04/30 04:34:09;;;;;;;9.23;7.53;;;1.40;99.90;;;;;;482461;245;27485;-63
2021/04/30 04:36:10;;;;;;;13.52;9.13;;;1.40;99.90;;;;;;482466;245;27469;-63
2021/04/30 04:38:11;;;;;;;9.45;7.60;;;1.40;99.90;;;;;;482454;245;27870;-64
2021/04/30 04:40:13;;;;;;;8.77;7.82;;;1.50;99.90;;;;;;482476;246;27936;-63
2021/04/30 04:42:14;;;;;;;9.27;8.10;;;1.50;99.90;;;;;;482458;245;28052;-64
2021/04/30 04:44:15;;;;;;;10.45;7.70;;;1.50;99.90;;;;;;482462;245;27410;-63
2021/04/30 04:46:16;;;;;;;9.38;7.95;;;1.60;99.90;;;;;;482489;245;27397;-64
2021/04/30 04:48:18;;;;;;;8.68;7.60;;;1.50;99.90;;;;;;482499;246;27492;-63
2021/04/30 04:50:19;;;;;;;10.18;8.02;;;1.50;99.90;;;;;;482511;246;27398;-63
2021/04/30 04:52:20;;;;;;;8.95;7.78;;;1.50;99.90;;;;;;482486;245;27384;-63
2021/04/30 04:54:22;;;;;;;10.20;9.05;;;1.60;99.90;;;;;;482503;245;27424;-64
2021/04/30 04:56:25;;;;;;;9.00;7.82;;;1.60;99.90;;;;;;482499;245;27397;-64
2021/04/30 04:58:24;;;;;;;9.48;8.43;;;1.60;99.90;;;;;;482499;245;27492;-63
2021/04/30 05:00:25;;;;;;;9.18;7.68;;;1.50;99.90;;;;;;482523;245;27406;-63
2021/04/30 05:02:26;;;;;;;8.45;7.57;;;1.50;99.90;;;;;;482494;246;27894;-64
2021/04/30 05:04:28;;;;;;;10.70;8.82;;;1.60;99.90;;;;;;482506;246;27897;-64
2021/04/30 05:06:29;;;;;;;17.85;8.40;;;1.60;99.90;;;;;;482501;245;27845;-64
2021/04/30 05:08:30;;;;;;;12.15;9.07;;;1.70;99.90;;;;;;482515;245;27399;-63
2021/04/30 05:10:31;;;;;;;13.10;7.72;;;1.80;99.90;;;;;;482498;245;27402;-64
2021/04/30 05:12:33;;;;;;;9.57;7.95;;;1.90;99.90;;;;;;482474;246;27407;-63
2021/04/30 05:14:34;;;;;;;11.95;8.32;;;1.90;99.90;;;;;;482504;245;27501;-65
2021/04/30 05:16:35;;;;;;;8.40;7.57;;;2.00;99.90;;;;;;482516;245;27511;-63
2021/04/30 05:18:36;;;;;;;10.25;8.57;;;2.10;99.90;;;;;;482518;245;27516;-64
2021/04/30 05:20:38;;;;;;;9.73;7.60;;;2.20;99.90;;;;;;482506;246;27508;-64
2021/04/30 05:22:41;;;;;;;11.60;8.68;;;2.40;99.90;;;;;;482484;245;27516;-63
2021/04/30 05:24:40;;;;;;;10.43;9.25;;;2.50;99.90;;;;;;482491;246;27893;-65
2021/04/30 05:26:41;;;;;;;10.68;8.93;;;2.60;99.90;;;;;;482500;245;27856;-63
2021/04/30 05:28:43;;;;;;;12.07;9.38;;;2.60;99.90;;;;;;482492;245;27924;-64
2021/04/30 05:30:44;;;;;;;8.93;7.87;;;2.70;99.90;;;;;;482504;245;27426;-64
2021/04/30 05:32:45;;;;;;;8.20;7.35;;;2.60;99.90;;;;;;482487;246;27474;-64
2021/04/30 05:34:46;;;;;;;10.75;7.70;;;2.40;99.90;;;;;;482513;245;27406;-65
2021/04/30 05:36:48;;;;;;;6.72;6.05;;;2.50;99.90;;;;;;482497;245;27411;-64
2021/04/30 05:38:49;;;;;;;10.93;7.70;;;2.50;99.90;;;;;;482497;245;27418;-64
2021/04/30 05:40:50;;;;;;;8.32;7.35;;;2.60;99.90;;;;;;482493;245;27422;-64
2021/04/30 05:42:51;;;;;;;10.50;7.80;;;2.60;99.90;;;;;;482513;245;27422;-64
2021/04/30 05:44:53;;;;;;;9.93;7.62;;;2.70;99.90;;;;;;482517;245;27905;-65
2021/04/30 05:46:54;;;;;;;9.18;7.40;;;2.80;99.90;;;;;;482503;246;27905;-64
2021/04/30 05:48:55;;;;;;;10.82;8.10;;;3.00;99.90;;;;;;482513;245;27861;-65
2021/04/30 05:50:56;;;;;;;9.50;7.47;;;3.10;99.90;;;;;;482528;245;27461;-63
2021/04/30 05:52:58;;;;;;;11.40;8.27;;;3.20;99.90;;;;;;482505;245;27418;-64
2021/04/30 05:55:00;;;;;;;8.75;7.90;;;3.40;99.90;;;;;;482437;245;27418;-64
2021/04/30 05:57:01;;;;;;;10.77;9.02;;;3.50;99.90;;;;;;482492;246;27506;-64
2021/04/30 05:59:02;;;;;;;12.70;8.48;;;3.60;99.90;;;;;;482494;246;27589;-63
2021/04/30 06:01:03;;;;;;;9.80;8.65;;;3.80;99.90;;;;;;482486;245;27481;-65
2021/04/30 06:03:04;;;;;;;12.77;8.10;;;3.80;99.90;;;;;;475886;245;27476;-64
2021/04/30 06:05:06;;;;;;;9.88;8.10;;;3.80;99.90;;;;;;471230;252;27497;-64
2021/04/30 06:07:07;;;;;;;10.32;7.62;;;3.70;99.90;;;;;;471228;252;27943;-64
2021/04/30 06:09:08;;;;;;;10.75;8.20;;;3.70;99.90;;;;;;471232;252;27982;-64
2021/04/30 06:11:09;;;;;;;10.32;9.02;;;3.80;99.90;;;;;;471214;252;27430;-65
2021/04/30 06:13:11;;;;;;;8.95;7.85;;;3.90;99.90;;;;;;468771;253;27501;-64
2021/04/30 06:15:12;;;;;;;9.55;8.10;;;4.10;99.90;;;;;;468795;253;27418;-64
2021/04/30 06:17:13;;;;;;;14.17;11.30;;;4.30;99.90;;;;;;468823;253;27414;-64
2021/04/30 06:19:14;;;;;;;14.07;11.55;;;4.50;99.90;;;;;;468795;250;28828;-64
2021/04/30 06:21:16;;;;;;;12.95;9.80;;;4.60;99.90;;;;;;468807;249;28327;-64
2021/04/30 06:23:17;;;;;;;15.60;12.35;;;4.70;99.90;;;;;;468811;250;27610;-63
2021/04/30 06:25:18;;;;;;;15.25;11.95;;;4.70;99.90;;;;;;468813;253;27502;-65
2021/04/30 06:27:20;;;;;;;14.87;10.52;;;4.80;99.90;;;;;;468797;249;27509;-64
2021/04/30 06:29:21;;;;;;;12.13;9.57;;;4.80;99.90;;;;;;468808;254;27478;-64
2021/04/30 06:31:23;;;;;;;10.63;9.50;;;4.80;99.90;;;;;;468780;249;28412;-64
2021/04/30 06:33:23;;;;;;;12.30;10.05;;;4.90;99.90;;;;;;468783;254;28304;-64
2021/04/30 06:35:25;;;;;;;11.90;9.87;;;4.90;99.90;;;;;;468808;253;27410;-65
2021/04/30 06:37:27;;;;;;;13.30;9.60;;;5.10;99.90;;;;;;468823;253;27745;-64
2021/04/30 06:39:27;;;;;;;13.43;11.05;;;5.20;99.90;;;;;;468791;253;28443;-64
2021/04/30 06:41:28;;;;;;;11.45;8.73;;;5.20;99.90;;;;;;468802;249;27590;-63
2021/04/30 06:43:29;;;;;;;10.90;9.30;;;5.30;99.90;;;;;;468805;250;27497;-64
2021/04/30 06:45:31;;;;;;;18.92;15.07;;;5.30;99.90;;;;;;468807;253;27935;-65
2021/04/30 06:47:34;;;;;;;20.47;16.70;;;5.30;99.90;;;;;;468802;250;27497;-64
2021/04/30 06:49:33;;;;;;;18.30;14.40;;;5.50;99.90;;;;;;468804;253;27993;-64
2021/04/30 06:51:35;;;;;;;23.27;17.17;;;5.60;99.90;;;;;;468796;253;28919;-64
2021/04/30 06:53:36;;;;;;;24.50;19.00;;;5.70;99.90;;;;;;468794;253;28087;-64
2021/04/30 06:55:37;;;;;;;18.50;15.97;;;5.90;99.90;;;;;;468788;254;27733;-64
2021/04/30 06:57:38;;;;;;;19.93;15.83;;;6.00;99.90;;;;;;468804;254;27955;-64
2021/04/30 06:59:40;;;;;;;20.00;16.63;;;6.10;99.90;;;;;;468797;253;28545;-65
2021/04/30 07:01:41;;;;;;;22.80;17.13;;;6.10;99.90;;;;;;468794;253;28570;-64
2021/04/30 07:03:45;;;;;;;18.17;15.40;;;6.10;99.90;;;;;;468779;253;28505;-64
2021/04/30 07:05:43;;;;;;;22.70;13.53;;;6.10;99.90;;;;;;468790;253;27864;-65
2021/04/30 07:07:45;;;;;;;14.80;12.77;;;6.10;99.90;;;;;;468818;249;27715;-64
2021/04/30 07:09:46;;;;;;;18.37;13.07;;;6.10;99.90;;;;;;468804;253;27719;-64
2021/04/30 07:11:47;;;;;;;24.13;14.40;;;6.20;99.90;;;;;;468806;253;27877;-64
2021/04/30 07:13:48;;;;;;;23.30;14.83;;;6.30;99.90;;;;;;468810;249;27994;-64
2021/04/30 07:15:50;;;;;;;18.43;12.97;;;6.30;99.90;;;;;;468814;253;27970;-65
2021/04/30 07:17:51;;;;;;;15.13;12.13;;;6.40;99.90;;;;;;468793;254;28508;-64
2021/04/30 07:19:52;;;;;;;14.17;11.90;;;6.40;99.90;;;;;;468793;254;28358;-65
2021/04/30 07:21:53;;;;;;;19.30;15.13;;;6.50;99.90;;;;;;468796;253;28328;-64
2021/04/30 07:23:55;;;;;;;19.77;14.90;;;6.50;99.90;;;;;;468807;253;27957;-64
2021/04/30 07:25:56;;;;;;;18.60;15.00;;;6.30;99.90;;;;;;468797;253;27870;-65
2021/04/30 07:27:57;;;;;;;22.83;16.20;;;6.30;99.90;;;;;;468792;253;27741;-64
2021/04/30 07:29:58;;;;;;;21.83;14.70;;;6.20;99.90;;;;;;468789;249;27914;-64
2021/04/30 07:32:00;;;;;;;17.17;13.10;;;6.40;99.90;;;;;;468788;249;28104;-64
2021/04/30 07:34:01;;;;;;;22.20;15.90;;;6.40;99.90;;;;;;468793;253;27963;-64
2021/04/30 07:36:02;;;;;;;17.47;14.00;;;6.50;99.90;;;;;;468789;253;28214;-65
2021/04/30 07:38:05;;;;;;;15.67;12.70;;;6.30;99.90;;;;;;468794;253;28431;-64
2021/04/30 07:40:05;;;;;;;19.17;14.00;;;6.50;99.90;;;;;;468775;253;28055;-64
2021/04/30 07:42:06;;;;;;;18.00;15.20;;;6.60;99.90;;;;;;468799;253;28064;-64
2021/04/30 07:44:07;;;;;;;25.13;14.53;;;6.60;99.90;;;;;;468800;251;27894;-64
2021/04/30 07:46:08;;;;;;;22.30;14.33;;;6.70;99.90;;;;;;468792;253;27959;-66
2021/04/30 07:48:10;;;;;;;16.07;13.37;;;6.80;99.90;;;;;;468793;249;27879;-64
2021/04/30 07:50:11;;;;;;;19.17;15.30;;;6.70;99.90;;;;;;468788;249;27884;-65
2021/04/30 07:52:12;;;;;;;18.47;13.50;;;6.70;99.90;;;;;;468785;253;28011;-64
2021/04/30 07:54:13;;;;;;;19.37;15.33;;;6.60;99.90;;;;;;468792;253;28208;-64
2021/04/30 07:56:15;;;;;;;16.60;13.93;;;6.60;99.90;;;;;;468797;253;28392;-65
2021/04/30 07:58:16;;;;;;;26.63;15.27;;;6.60;99.90;;;;;;468797;253;28083;-64
2021/04/30 08:00:17;;;;;;;17.13;14.43;;;6.50;99.90;;;;;;468794;254;27999;-65
2021/04/30 08:02:18;;;;;;;19.10;14.97;;;6.40;99.90;;;;;;468785;253;28061;-64
2021/04/30 08:04:20;;;;;;;18.03;13.17;;;6.40;99.90;;;;;;468791;253;28074;-64
2021/04/30 08:06:21;;;;;;;19.77;15.40;;;6.50;99.90;;;;;;466489;253;27767;-66
2021/04/30 08:08:22;;;;;;;18.97;14.90;;;6.50;99.90;;;;;;466352;255;27880;-64
2021/04/30 08:10:23;;;;;;;19.87;16.60;;;6.60;99.90;;;;;;466345;255;27847;-64
2021/04/30 08:12:25;;;;;;;19.43;14.73;;;6.50;99.90;;;;;;466344;255;28687;-64
2021/04/30 08:14:26;;;;;;;21.77;16.10;;;6.40;99.90;;;;;;466375;255;28550;-64
2021/04/30 08:16:27;;;;;;;16.87;14.03;;;6.40;99.90;;;;;;466359;255;28001;-65
2021/04/30 08:18:28;;;;;;;21.80;14.60;;;6.50;99.90;;;;;;466361;255;27982;-64
2021/04/30 08:20:30;;;;;;;25.63;16.27;;;6.50;99.90;;;;;;466349;255;28017;-65
2021/04/30 08:22:31;;;;;;;18.50;14.43;;;6.50;99.90;;;;;;466370;255;27862;-64
2021/04/30 08:24:32;;;;;;;20.00;15.87;;;6.50;99.90;;;;;;466349;255;28074;-64
2021/04/30 08:26:33;;;;;;;26.10;16.17;;;6.50;99.90;;;;;;466355;255;27993;-65
2021/04/30 08:28:35;;;;;;;23.43;16.83;;;6.50;99.90;;;;;;466367;255;27856;-64
2021/04/30 08:30:36;;;;;;;22.80;18.47;;;6.40;99.90;;;;;;466362;255;28329;-65
2021/04/30 08:32:37;;;;;;;19.80;16.20;;;6.20;99.90;;;;;;466345;255;28326;-64
2021/04/30 08:34:39;;;;;;;20.47;15.20;;;6.20;99.90;;;;;;466360;255;27889;-64
2021/04/30 08:36:40;;;;;;;20.47;14.83;;;6.30;99.90;;;;;;466351;255;28008;-64
2021/04/30 08:38:41;;;;;;;15.97;13.30;;;6.50;99.90;;;;;;466354;255;28051;-64
2021/04/30 08:40:42;;;;;;;15.87;14.07;;;6.60;99.90;;;;;;466358;255;27981;-64
2021/04/30 08:42:44;;;;;;;20.00;16.67;;;6.70;99.90;;;;;;468904;244;28498;-64
2021/04/30 08:44:45;;;;;;;20.07;14.70;;;6.60;99.90;;;;;;477726;248;27946;-65
2021/04/30 08:46:46;;;;;;;21.07;16.33;;;6.60;99.90;;;;;;477723;248;27975;-64
2021/04/30 08:48:47;;;;;;;21.57;16.23;;;6.50;99.90;;;;;;477721;248;28446;-64
2021/04/30 08:50:49;;;;;;;21.00;15.20;;;6.50;99.90;;;;;;477719;248;28335;-64
2021/04/30 08:52:50;;;;;;;17.77;14.00;;;6.40;99.90;;;;;;477695;249;27980;-64
2021/04/30 08:54:54;;;;;;;18.43;13.60;;;6.50;99.90;;;;;;477718;248;27889;-64
2021/04/30 08:56:54;;;;;;;16.00;14.00;;;6.60;99.90;;;;;;477722;248;27705;-64
2021/04/30 08:58:54;;;;;;;19.57;13.83;;;6.50;99.90;;;;;;477726;248;27894;-64
2021/04/30 09:00:55;;;;;;;20.07;14.57;;;6.50;99.90;;;;;;477728;248;27836;-65
2021/04/30 09:02:56;;;;;;;14.90;12.63;;;6.50;99.90;;;;;;477728;248;27891;-65
2021/04/30 09:04:57;;;;;;;19.10;13.67;;;6.50;99.90;;;;;;477729;248;27907;-65
2021/04/30 09:06:59;;;;;;;16.80;13.40;;;6.40;99.90;;;;;;477729;248;28616;-64
2021/04/30 09:09:00;;;;;;;15.67;12.87;;;6.50;99.90;;;;;;477724;248;28466;-64
2021/04/30 09:11:01;;;;;;;19.53;12.70;;;6.60;99.90;;;;;;477714;248;27975;-65
2021/04/30 09:13:02;;;;;;;16.10;11.33;;;6.80;99.90;;;;;;477711;248;27883;-64
2021/04/30 09:15:04;;;;;;;15.83;11.23;;;6.90;99.90;;;;;;477723;248;27805;-65
2021/04/30 09:17:05;;;;;;;15.80;12.50;;;7.00;99.90;;;;;;477719;249;27878;-65
2021/04/30 09:19:06;;;;;;;13.97;11.17;;;7.00;99.90;;;;;;477710;248;27892;-64
2021/04/30 09:21:07;;;;;;;16.80;11.77;;;7.10;99.90;;;;;;477728;248;28083;-65
2021/04/30 09:23:09;;;;;;;14.97;12.07;;;7.20;99.90;;;;;;477717;248;28325;-64
2021/04/30 09:25:10;;;;;;;18.93;12.03;;;7.00;99.90;;;;;;477715;248;28457;-65
2021/04/30 09:27:11;;;;;;;16.80;11.10;;;7.10;99.90;;;;;;477709;248;28364;-64
2021/04/30 09:29:13;;;;;;;15.07;10.80;;;7.10;99.90;;;;;;477720;248;27893;-64
2021/04/30 09:31:14;;;;;;;17.60;11.60;;;7.40;99.90;;;;;;477723;249;27862;-66
2021/04/30 09:33:15;;;;;;;14.03;11.30;;;7.40;99.90;;;;;;477748;248;27875;-64
2021/04/30 09:35:16;;;;;;;18.27;11.60;;;7.40;99.90;;;;;;477742;248;27869;-65
2021/04/30 09:37:19;;;;;;;13.93;11.93;;;7.10;99.90;;;;;;477768;248;27765;-64
2021/04/30 09:39:19;;;;;;;11.60;9.83;;;7.40;99.90;;;;;;477738;248;27777;-64
2021/04/30 09:41:20;;;;;;;11.90;10.60;;;7.50;99.90;;;;;;477735;249;28013;-65
2021/04/30 09:43:21;;;;;;;11.90;10.30;;;7.50;99.90;;;;;;477724;248;28232;-64
2021/04/30 09:45:22;;;;;;;13.63;10.30;;;7.70;99.90;;;;;;477743;248;28311;-65
2021/04/30 09:47:24;;;;;;;15.07;10.70;;;7.50;99.90;;;;;;477747;248;27812;-64
2021/04/30 09:49:25;;;;;;;12.27;10.00;;;7.50;99.90;;;;;;477734;248;27875;-64
2021/04/30 09:51:26;;;;;;;13.00;10.50;;;7.40;99.90;;;;;;477735;248;27750;-65
2021/04/30 09:53:27;;;;;;;10.90;9.80;;;7.50;99.90;;;;;;477735;248;27870;-64
2021/04/30 09:55:29;;;;;;;13.00;9.97;;;7.40;99.90;;;;;;477742;248;27630;-64
2021/04/30 09:57:30;;;;;;;12.80;10.90;;;7.40;99.90;;;;;;477732;248;27637;-64
2021/04/30 09:59:31;;;;;;;13.50;10.00;;;7.50;99.90;;;;;;477729;248;28006;-64
2021/04/30 10:01:32;;;;;;;17.73;10.60;;;7.50;99.90;;;;;;477738;248;28237;-65
2021/04/30 10:03:34;;;;;;;12.70;10.27;;;7.60;99.90;;;;;;477748;248;28206;-64
2021/04/30 10:05:35;;;;;;;12.10;9.33;;;7.70;99.90;;;;;;477735;248;28497;-65
2021/04/30 10:07:36;;;;;;;13.07;10.00;;;7.80;99.90;;;;;;477732;248;28112;-64
2021/04/30 10:09:37;;;;;;;11.63;8.90;;;7.80;99.90;;;;;;477736;248;27752;-64
2021/04/30 10:11:39;;;;;;;12.70;10.03;;;7.80;99.90;;;;;;477740;249;27999;-64
2021/04/30 10:13:40;;;;;;;11.97;8.93;;;8.00;99.90;;;;;;477720;248;27837;-64
2021/04/30 10:15:41;;;;;;;12.93;9.70;;;7.80;99.90;;;;;;477732;248;27859;-65
2021/04/30 10:17:42;;;;;;;12.27;8.50;;;7.90;99.90;;;;;;477739;248;27981;-64
2021/04/30 10:19:44;;;;;;;16.63;8.50;;;8.00;99.90;;;;;;477747;248;27914;-64
2021/04/30 10:21:45;;;;;;;9.10;7.30;;;8.20;99.90;;;;;;477718;248;27793;-66
2021/04/30 10:23:46;;;;;;;12.13;8.17;;;8.20;99.90;;;;;;477724;248;28445;-63
2021/04/30 10:25:47;;;;;;;12.60;7.90;;;8.10;99.90;;;;;;477727;248;28406;-65
2021/04/30 10:27:49;;;;;;;11.00;8.43;;;8.00;99.90;;;;;;477748;248;28348;-64
2021/04/30 10:29:50;;;;;;;10.40;8.33;;;8.10;99.90;;;;;;477737;249;27789;-64
2021/04/30 10:31:51;;;;;;;7.80;7.00;;;8.20;99.90;;;;;;477733;248;27956;-64